Time;durP1;ratioP1;P1;durP2;ratioP2;P2;SDS_P1;SDS_P2;PMS_P1;PMS_P2;Temp;Humidity;BMP_temperature;BMP_pressure;BME280_temperature;BME280_humidity;BME280_pressure;Samples;Min_cycle;Max_cycle;Signal;HPM_P1;HPM_P2
2022/03/03 00:01:30;;;;;;;5.00;3.00;;;17.00;45.20;;;;;;5130283;27;45198;-79
2022/03/03 00:03:57;;;;;;;3.45;2.60;;;17.00;44.30;;;;;;5122361;27;46334;-79
2022/03/03 00:06:24;;;;;;;4.30;3.10;;;17.00;44.30;;;;;;5125552;27;45468;-80
2022/03/03 00:08:50;;;;;;;4.90;3.08;;;17.00;44.10;;;;;;5128939;27;45279;-79
2022/03/03 00:11:18;;;;;;;4.20;2.83;;;17.00;43.80;;;;;;5109408;27;45216;-80
2022/03/03 00:13:45;;;;;;;3.97;2.65;;;16.90;44.00;;;;;;5109044;27;45607;-79
2022/03/03 00:16:13;;;;;;;4.80;2.97;;;16.90;43.80;;;;;;5123080;27;45299;-79
2022/03/03 00:18:40;;;;;;;6.03;3.17;;;16.90;44.00;;;;;;5118726;27;45229;-79
2022/03/03 00:21:07;;;;;;;3.63;2.80;;;16.90;44.00;;;;;;5126204;27;45158;-79
2022/03/03 00:23:34;;;;;;;4.38;2.90;;;16.90;44.00;;;;;;5125058;27;45526;-79
2022/03/03 00:26:01;;;;;;;3.55;2.45;;;16.90;43.60;;;;;;5123489;27;45326;-79
2022/03/03 00:28:28;;;;;;;5.40;3.20;;;17.00;44.80;;;;;;5126780;27;45247;-79
2022/03/03 00:30:55;;;;;;;3.72;2.78;;;17.00;48.00;;;;;;5126618;27;45214;-79
2022/03/03 00:33:23;;;;;;;4.50;2.58;;;17.00;45.80;;;;;;5119744;27;45288;-79
2022/03/03 00:35:50;;;;;;;4.35;2.95;;;17.00;46.70;;;;;;5115587;27;45352;-79
2022/03/03 00:38:17;;;;;;;4.43;2.72;;;17.00;46.40;;;;;;5117046;27;45657;-79
2022/03/03 00:40:44;;;;;;;3.88;2.70;;;17.00;46.50;;;;;;5106731;27;45354;-79
2022/03/03 00:43:11;;;;;;;4.70;2.72;;;17.00;47.60;;;;;;5124741;27;45173;-79
2022/03/03 00:45:38;;;;;;;4.13;2.80;;;17.00;45.90;;;;;;5123307;27;45715;-79
2022/03/03 00:48:06;;;;;;;3.83;2.58;;;17.00;43.80;;;;;;5116649;27;45323;-79
2022/03/03 00:50:34;;;;;;;4.15;2.80;;;17.00;45.00;;;;;;5124352;27;45275;-79
2022/03/03 00:53:01;;;;;;;4.03;3.03;;;17.00;43.60;;;;;;5119792;27;46519;-80
2022/03/03 00:55:28;;;;;;;4.35;2.60;;;16.90;42.90;;;;;;5128939;27;45309;-79
2022/03/03 00:57:55;;;;;;;4.53;2.88;;;16.90;43.50;;;;;;5124954;27;45303;-79
2022/03/03 01:00:22;;;;;;;5.85;2.90;;;16.90;42.80;;;;;;5113569;27;45342;-79
2022/03/03 01:02:50;;;;;;;3.55;2.58;;;16.90;42.90;;;;;;5108334;27;47507;-79
2022/03/03 01:05:17;;;;;;;3.42;2.78;;;16.90;43.10;;;;;;5126765;27;45227;-79
2022/03/03 01:07:46;;;;;;;4.00;2.72;;;16.90;43.10;;;;;;5126594;27;45359;-79
2022/03/03 01:10:13;;;;;;;3.83;2.70;;;16.90;43.40;;;;;;5126690;27;45315;-80
2022/03/03 01:12:40;;;;;;;4.38;3.05;;;16.90;42.80;;;;;;5111735;27;46444;-79
2022/03/03 01:15:09;;;;;;;3.88;2.42;;;16.90;44.00;;;;;;5129111;27;45099;-79
2022/03/03 01:17:37;;;;;;;3.25;2.50;;;16.90;45.50;;;;;;5114714;27;45284;-79
2022/03/03 01:20:05;;;;;;;5.38;2.33;;;16.90;44.80;;;;;;5118064;27;45968;-79
2022/03/03 01:22:32;;;;;;;5.28;2.83;;;17.00;45.40;;;;;;5125107;27;47153;-79
2022/03/03 01:25:00;;;;;;;5.85;3.05;;;17.00;45.90;;;;;;5108133;27;45250;-79
2022/03/03 01:27:27;;;;;;;4.15;2.80;;;17.00;44.60;;;;;;5107648;27;45701;-79
2022/03/03 01:29:54;;;;;;;4.30;2.88;;;17.00;45.50;;;;;;5120906;27;45261;-79
2022/03/03 01:32:20;;;;;;;4.90;3.33;;;17.00;44.80;;;;;;5110620;27;45747;-79
2022/03/03 01:34:47;;;;;;;3.60;2.83;;;17.00;44.00;;;;;;5121223;27;45181;-79
2022/03/03 01:37:14;;;;;;;3.95;2.75;;;17.00;42.90;;;;;;5128504;27;45274;-79
2022/03/03 01:39:41;;;;;;;3.75;2.85;;;16.90;42.30;;;;;;5110642;27;45397;-79
2022/03/03 01:42:09;;;;;;;3.63;2.90;;;17.00;42.60;;;;;;5127283;27;46579;-79
2022/03/03 01:44:36;;;;;;;4.25;3.20;;;16.90;42.40;;;;;;5128362;27;45642;-79
2022/03/03 01:47:03;;;;;;;4.13;3.13;;;16.90;43.30;;;;;;5108750;27;45193;-79
2022/03/03 01:49:30;;;;;;;4.28;3.00;;;16.90;42.30;;;;;;5125729;27;45338;-79
2022/03/03 01:51:57;;;;;;;4.65;2.97;;;16.90;42.50;;;;;;5128737;27;45217;-79
2022/03/03 01:54:24;;;;;;;4.78;2.80;;;16.90;42.20;;;;;;5123600;27;45296;-79
2022/03/03 01:56:51;;;;;;;5.30;2.97;;;16.90;42.50;;;;;;5125908;27;45189;-79
2022/03/03 01:59:19;;;;;;;4.20;2.80;;;16.90;42.20;;;;;;5116083;27;45369;-79
2022/03/03 02:01:47;;;;;;;4.10;2.72;;;16.90;42.80;;;;;;5113749;27;46446;-79
2022/03/03 02:04:14;;;;;;;3.92;2.63;;;16.90;44.00;;;;;;5118286;27;45215;-79
2022/03/03 02:06:40;;;;;;;3.92;2.50;;;16.90;43.20;;;;;;5125341;27;45306;-79
2022/03/03 02:09:07;;;;;;;3.95;2.63;;;17.00;44.40;;;;;;5126385;27;45312;-79
2022/03/03 02:11:34;;;;;;;3.55;2.47;;;17.00;44.60;;;;;;5139971;27;45235;-79
2022/03/03 02:14:03;;;;;;;3.55;2.20;;;17.00;44.40;;;;;;5120870;27;45320;-79
2022/03/03 02:16:32;;;;;;;3.90;2.70;;;17.00;44.80;;;;;;5109377;27;45174;-79
2022/03/03 02:18:59;;;;;;;4.10;2.72;;;17.00;43.90;;;;;;5120984;27;45167;-79
2022/03/03 02:21:27;;;;;;;3.53;2.70;;;17.00;42.30;;;;;;5108962;27;48176;-79
2022/03/03 02:23:54;;;;;;;3.92;2.80;;;16.90;41.80;;;;;;5116796;27;45197;-79
2022/03/03 02:26:23;;;;;;;4.72;2.67;;;16.90;42.00;;;;;;5121244;27;45348;-79
2022/03/03 02:28:51;;;;;;;4.65;2.83;;;16.90;41.90;;;;;;5127162;27;45265;-79
2022/03/03 02:31:19;;;;;;;4.03;2.60;;;16.90;41.60;;;;;;5107993;27;47521;-79
2022/03/03 02:33:46;;;;;;;4.13;2.60;;;16.90;42.00;;;;;;5119827;27;45313;-79
2022/03/03 02:36:18;;;;;;;4.05;2.70;;;16.90;41.80;;;;;;5123677;27;45194;-79
2022/03/03 02:38:46;;;;;;;4.28;2.50;;;16.90;41.70;;;;;;5110375;27;45465;-79
2022/03/03 02:41:13;;;;;;;4.75;3.10;;;16.90;41.50;;;;;;5129422;27;46272;-79
2022/03/03 02:43:40;;;;;;;3.70;2.70;;;16.90;41.40;;;;;;5130758;27;45570;-79
2022/03/03 02:46:08;;;;;;;4.22;2.83;;;16.90;41.80;;;;;;5126676;27;45287;-79
2022/03/03 02:48:34;;;;;;;3.72;2.88;;;16.90;43.00;;;;;;5118415;27;45390;-79
2022/03/03 02:51:02;;;;;;;5.03;2.92;;;16.90;42.90;;;;;;5111717;27;45388;-79
2022/03/03 02:53:29;;;;;;;4.80;3.17;;;16.90;43.10;;;;;;5117459;27;45130;-79
2022/03/03 02:55:57;;;;;;;4.78;3.10;;;16.90;43.30;;;;;;5112902;27;45437;-79
2022/03/03 02:58:24;;;;;;;3.20;2.47;;;16.90;43.70;;;;;;5118665;27;45655;-78
2022/03/03 03:00:52;;;;;;;4.53;2.95;;;17.00;44.40;;;;;;5122325;27;45344;-79
2022/03/03 03:03:20;;;;;;;3.90;2.58;;;17.00;44.00;;;;;;5115390;27;45132;-79
2022/03/03 03:05:48;;;;;;;4.55;2.80;;;17.00;43.80;;;;;;5124800;27;45261;-79
2022/03/03 03:08:15;;;;;;;4.38;2.72;;;17.00;43.30;;;;;;5121251;27;45151;-79
2022/03/03 03:10:43;;;;;;;3.75;2.65;;;16.90;41.10;;;;;;5125725;27;47430;-79
2022/03/03 03:13:14;;;;;;;3.78;2.70;;;16.90;41.20;;;;;;5127137;27;46425;-79
2022/03/03 03:15:41;;;;;;;4.47;2.80;;;16.90;40.70;;;;;;5129286;27;45528;-79
2022/03/03 03:18:12;;;;;;;3.67;2.90;;;16.90;40.60;;;;;;5121479;27;45376;-79
2022/03/03 03:20:40;;;;;;;4.07;3.00;;;16.90;40.70;;;;;;5128315;27;46376;-79
2022/03/03 03:23:07;;;;;;;3.95;2.78;;;16.90;41.00;;;;;;5135134;27;45175;-79
2022/03/03 03:25:37;;;;;;;4.63;2.90;;;16.90;40.80;;;;;;5134538;27;45226;-79
2022/03/03 03:28:05;;;;;;;4.22;2.80;;;16.90;41.00;;;;;;5119415;27;45498;-79
2022/03/03 03:30:33;;;;;;;4.47;2.85;;;16.90;41.10;;;;;;5124488;27;46603;-80
2022/03/03 03:33:00;;;;;;;4.22;2.67;;;16.90;41.10;;;;;;5127197;27;45103;-79
2022/03/03 03:35:27;;;;;;;4.80;2.80;;;16.90;41.10;;;;;;5128690;27;45312;-79
2022/03/03 03:37:54;;;;;;;3.78;2.63;;;16.90;41.80;;;;;;5127998;27;45219;-79
2022/03/03 03:40:21;;;;;;;4.47;2.78;;;16.90;42.40;;;;;;5114244;27;46298;-79
2022/03/03 03:42:48;;;;;;;5.40;2.88;;;16.90;43.20;;;;;;5125882;27;45270;-79
2022/03/03 03:45:15;;;;;;;3.53;2.50;;;16.90;43.30;;;;;;5130691;27;45213;-79
2022/03/03 03:47:43;;;;;;;4.32;2.92;;;17.00;43.80;;;;;;5126473;27;45193;-79
2022/03/03 03:50:13;;;;;;;4.72;2.90;;;17.00;42.70;;;;;;5126448;27;48224;-79
2022/03/03 03:52:41;;;;;;;3.55;2.60;;;16.90;43.50;;;;;;5127832;27;45349;-79
2022/03/03 03:55:10;;;;;;;4.18;3.08;;;17.00;41.90;;;;;;5122491;27;45314;-79
2022/03/03 03:57:38;;;;;;;3.45;2.70;;;16.90;40.50;;;;;;5116564;27;45484;-79
2022/03/03 04:00:08;;;;;;;3.95;3.00;;;16.90;40.50;;;;;;5122393;27;46180;-79
2022/03/03 04:02:35;;;;;;;5.45;3.15;;;16.90;40.70;;;;;;5115877;27;45287;-79
2022/03/03 04:05:04;;;;;;;3.75;2.72;;;16.90;40.70;;;;;;5110538;27;45394;-80
2022/03/03 04:07:31;;;;;;;4.47;2.90;;;16.90;40.70;;;;;;5117442;27;45660;-79
2022/03/03 04:09:58;;;;;;;4.75;3.30;;;16.90;41.80;;;;;;5120208;27;45270;-80
2022/03/03 04:12:25;;;;;;;4.53;3.25;;;16.90;39.20;;;;;;5121895;27;45186;-80
2022/03/03 04:14:52;;;;;;;4.78;3.22;;;16.90;38.50;;;;;;5129572;27;45492;-80
2022/03/03 04:17:19;;;;;;;5.80;3.83;;;16.90;38.10;;;;;;5124090;27;45214;-80
2022/03/03 04:19:46;;;;;;;5.50;3.70;;;16.90;38.00;;;;;;5129528;27;46187;-80
2022/03/03 04:22:14;;;;;;;4.30;3.35;;;16.80;37.90;;;;;;5128243;27;45395;-80
2022/03/03 04:24:41;;;;;;;4.75;3.53;;;16.80;37.90;;;;;;5125391;27;45344;-80
2022/03/03 04:27:08;;;;;;;5.43;3.33;;;16.90;39.20;;;;;;5126508;27;45299;-80
2022/03/03 04:29:34;;;;;;;5.43;3.35;;;16.90;39.40;;;;;;5134146;27;47180;-80
2022/03/03 04:32:01;;;;;;;6.22;3.70;;;16.90;38.50;;;;;;5137261;27;45288;-80
2022/03/03 04:34:28;;;;;;;6.03;3.67;;;16.90;38.90;;;;;;5116072;27;45279;-79
2022/03/03 04:36:55;;;;;;;6.07;3.47;;;16.90;39.10;;;;;;5124905;27;45282;-79
2022/03/03 04:39:23;;;;;;;5.53;3.75;;;16.90;38.50;;;;;;5127274;27;46413;-80
2022/03/03 04:41:50;;;;;;;5.18;3.63;;;16.90;37.30;;;;;;5118231;27;45170;-80
2022/03/03 04:44:17;;;;;;;5.60;4.07;;;16.80;37.20;;;;;;5109014;27;45154;-80
2022/03/03 04:46:44;;;;;;;5.60;3.85;;;16.80;37.20;;;;;;5120701;27;45676;-80
2022/03/03 04:49:11;;;;;;;6.68;4.20;;;16.80;37.20;;;;;;5113491;27;47043;-80
2022/03/03 04:51:40;;;;;;;6.07;3.88;;;16.80;37.00;;;;;;5126276;27;45268;-80
2022/03/03 04:54:08;;;;;;;7.18;3.75;;;16.80;37.20;;;;;;5113000;27;45317;-80
2022/03/03 04:56:37;;;;;;;6.07;4.05;;;16.70;36.90;;;;;;5122570;27;45193;-80
2022/03/03 04:59:04;;;;;;;6.38;3.88;;;16.70;37.00;;;;;;5124811;27;45602;-80
2022/03/03 05:01:30;;;;;;;6.57;4.00;;;16.70;36.80;;;;;;5122131;27;45161;-80
2022/03/03 05:03:57;;;;;;;5.32;4.13;;;16.70;36.90;;;;;;5106595;27;45356;-80
2022/03/03 05:06:24;;;;;;;6.13;4.05;;;16.70;36.80;;;;;;5120710;27;45447;-81
2022/03/03 05:08:51;;;;;;;6.25;3.78;;;16.70;36.80;;;;;;5127542;27;47094;-81
2022/03/03 05:11:19;;;;;;;5.15;3.45;;;16.70;37.90;;;;;;5121832;27;46033;-80
2022/03/03 05:13:48;;;;;;;5.53;3.88;;;16.70;37.80;;;;;;5107222;27;45295;-79
2022/03/03 05:16:14;;;;;;;4.72;3.47;;;16.70;38.70;;;;;;5113482;27;45607;-80
2022/03/03 05:18:41;;;;;;;4.93;3.60;;;16.70;38.70;;;;;;5124581;27;46324;-79
2022/03/03 05:21:08;;;;;;;6.20;3.50;;;16.70;38.90;;;;;;5118937;27;45636;-79
2022/03/03 05:23:35;;;;;;;4.85;3.50;;;16.70;40.00;;;;;;5109637;27;45277;-80
2022/03/03 05:26:02;;;;;;;5.72;3.58;;;16.70;39.70;;;;;;5122790;27;45303;-79
2022/03/03 05:28:29;;;;;;;5.75;3.63;;;16.70;39.80;;;;;;5118654;27;47002;-80
2022/03/03 05:30:57;;;;;;;7.63;3.88;;;16.70;39.10;;;;;;5124058;27;45381;-80
2022/03/03 05:33:24;;;;;;;6.78;4.13;;;16.70;39.10;;;;;;5116398;27;45325;-80
2022/03/03 05:35:58;;;;;;;5.38;3.33;;;16.60;38.50;;;;;;5120053;27;46686;-80
2022/03/03 05:38:28;;;;;;;5.63;3.92;;;16.70;37.70;;;;;;5119563;27;46188;-80
2022/03/03 05:40:55;;;;;;;7.07;4.05;;;16.70;37.00;;;;;;5134519;27;45158;-81
2022/03/03 05:43:24;;;;;;;5.68;4.00;;;16.70;37.80;;;;;;5129011;27;45318;-81
2022/03/03 05:45:51;;;;;;;6.10;4.15;;;16.70;39.40;;;;;;5118686;27;45404;-81
2022/03/03 05:48:20;;;;;;;6.60;4.20;;;16.70;38.50;;;;;;5108858;27;45978;-80
2022/03/03 05:50:48;;;;;;;6.45;4.20;;;16.70;37.80;;;;;;5121108;27;45553;-81
2022/03/03 05:53:15;;;;;;;7.25;4.38;;;16.60;37.60;;;;;;5123008;27;45267;-81
2022/03/03 05:55:44;;;;;;;6.75;4.15;;;16.60;37.00;;;;;;5131506;27;45507;-81
2022/03/03 05:58:13;;;;;;;6.75;4.13;;;16.60;37.00;;;;;;5128989;27;48185;-81
2022/03/03 06:00:42;;;;;;;7.40;4.53;;;16.60;38.20;;;;;;5125992;27;45543;-81
2022/03/03 06:03:14;;;;;;;6.85;4.28;;;16.60;37.00;;;;;;5124441;27;45379;-80
2022/03/03 06:05:46;;;;;;;7.13;4.32;;;16.60;37.00;;;;;;5125430;27;45515;-81
2022/03/03 06:08:18;;;;;;;5.45;3.78;;;16.60;37.20;;;;;;5117692;27;47036;-81
2022/03/03 06:10:49;;;;;;;8.25;4.20;;;16.60;37.00;;;;;;5125973;27;46528;-84
2022/03/03 06:13:21;;;;;;;6.53;4.05;;;16.60;36.60;;;;;;5122063;27;45230;-82
2022/03/03 06:15:49;;;;;;;5.43;4.00;;;16.50;36.60;;;;;;5126913;27;45337;-83
2022/03/03 06:18:16;;;;;;;7.43;3.80;;;16.50;36.70;;;;;;5115852;27;46494;-83
2022/03/03 06:20:45;;;;;;;6.10;4.03;;;16.50;36.80;;;;;;5126994;27;45253;-83
2022/03/03 06:23:13;;;;;;;6.95;4.28;;;16.50;36.90;;;;;;5118808;27;45334;-83
2022/03/03 06:25:41;;;;;;;5.68;3.67;;;16.60;37.60;;;;;;5129465;27;45163;-80
2022/03/03 06:28:09;;;;;;;6.68;4.05;;;16.60;36.10;;;;;;5125192;27;47357;-81
2022/03/03 06:30:36;;;;;;;6.22;4.05;;;16.60;36.10;;;;;;5116733;27;45739;-81
2022/03/03 06:33:03;;;;;;;6.32;4.20;;;16.60;35.90;;;;;;5128893;27;45302;-81
2022/03/03 06:35:35;;;;;;;6.85;4.43;;;16.60;35.50;;;;;;5131817;27;45369;-80
2022/03/03 06:38:06;;;;;;;6.85;4.13;;;16.60;35.40;;;;;;5124756;27;46248;-81
2022/03/03 06:40:33;;;;;;;6.93;3.72;;;16.60;35.50;;;;;;5130786;27;45286;-81
2022/03/03 06:43:01;;;;;;;7.13;4.25;;;16.60;35.50;;;;;;5137238;27;45342;-81
2022/03/03 06:45:29;;;;;;;5.68;3.47;;;16.60;36.20;;;;;;5125184;27;45461;-80
2022/03/03 06:47:56;;;;;;;5.85;3.85;;;16.60;35.70;;;;;;5127208;27;45606;-81
2022/03/03 06:50:24;;;;;;;5.65;3.83;;;16.60;35.80;;;;;;5125272;27;45316;-81
2022/03/03 06:52:52;;;;;;;5.80;3.95;;;16.60;35.90;;;;;;5127235;27;45340;-83
2022/03/03 06:55:23;;;;;;;5.88;3.75;;;16.60;37.50;;;;;;5119997;27;45532;-82
2022/03/03 06:57:53;;;;;;;4.88;3.70;;;16.60;37.00;;;;;;5119312;27;45370;-81
2022/03/03 07:00:22;;;;;;;6.35;3.75;;;16.70;37.90;;;;;;5126832;27;45347;-81
2022/03/03 07:02:50;;;;;;;5.65;3.70;;;16.70;38.50;;;;;;5127828;27;45243;-81
2022/03/03 07:05:17;;;;;;;5.32;3.85;;;16.80;38.80;;;;;;5114515;27;45297;-81
2022/03/03 07:07:47;;;;;;;5.75;3.75;;;16.80;39.10;;;;;;5129051;27;45233;-80
2022/03/03 07:10:19;;;;;;;8.00;3.30;;;16.80;39.40;;;;;;5131042;27;45132;-81
2022/03/03 07:12:49;;;;;;;5.65;3.15;;;16.80;39.60;;;;;;5130493;27;45344;-80
2022/03/03 07:15:16;;;;;;;6.50;3.55;;;16.80;39.70;;;;;;5129559;27;45517;-81
2022/03/03 07:17:49;;;;;;;5.72;3.50;;;16.80;39.70;;;;;;5126817;27;46606;-81
2022/03/03 07:20:18;;;;;;;5.65;3.78;;;16.80;38.30;;;;;;5130891;27;45273;-80
2022/03/03 07:23:04;;;;;;;5.72;3.83;;;16.80;37.20;;;;;;5114306;27;45342;-81
2022/03/03 07:25:41;;;;;;;7.28;3.67;;;16.80;38.10;;;;;;5111804;27;45373;-81
2022/03/03 07:28:11;;;;;;;5.15;3.65;;;16.70;37.30;;;;;;5129773;27;47383;-81
2022/03/03 07:30:41;;;;;;;5.80;3.83;;;16.80;37.90;;;;;;5128940;27;45224;-81
2022/03/03 07:33:12;;;;;;;7.57;4.15;;;16.80;37.70;;;;;;5120188;27;45406;-81
2022/03/03 07:35:41;;;;;;;6.70;3.78;;;16.80;37.50;;;;;;5115615;27;45516;-81
2022/03/03 07:38:14;;;;;;;5.88;3.95;;;16.80;38.00;;;;;;5120617;27;46284;-81
2022/03/03 07:40:43;;;;;;;7.90;4.05;;;16.80;37.10;;;;;;5123525;27;45373;-81
2022/03/03 07:43:11;;;;;;;6.20;3.75;;;16.70;36.40;;;;;;5120605;27;45426;-81
2022/03/03 07:45:40;;;;;;;4.45;3.35;;;16.70;36.00;;;;;;5126333;27;45437;-81
2022/03/03 07:48:07;;;;;;;8.35;4.05;;;16.70;35.90;;;;;;5127651;27;47286;-81
2022/03/03 07:50:39;;;;;;;6.05;3.90;;;16.70;35.90;;;;;;5125169;27;45298;-81
2022/03/03 07:53:09;;;;;;;6.32;4.25;;;16.70;35.70;;;;;;5124466;27;45285;-82
2022/03/03 07:55:42;;;;;;;5.82;3.60;;;16.70;35.70;;;;;;5122289;27;45495;-81
2022/03/03 07:58:16;;;;;;;5.40;3.83;;;16.70;35.40;;;;;;5124698;27;45278;-81
2022/03/03 08:00:47;;;;;;;5.35;3.40;;;16.70;35.40;;;;;;5129307;27;45945;-81
2022/03/03 08:03:18;;;;;;;5.28;3.85;;;16.70;35.50;;;;;;5124306;27;45183;-81
2022/03/03 08:05:46;;;;;;;5.60;3.28;;;16.70;35.20;;;;;;5127771;27;45493;-81
2022/03/03 08:08:16;;;;;;;6.07;4.05;;;16.70;35.10;;;;;;5119380;27;46730;-81
2022/03/03 08:10:45;;;;;;;5.80;3.53;;;16.70;35.70;;;;;;5122234;27;45358;-81
2022/03/03 08:13:16;;;;;;;7.32;4.10;;;16.70;40.80;;;;;;5123999;27;45309;-82
2022/03/03 08:15:45;;;;;;;6.75;3.80;;;16.80;41.90;;;;;;5120699;27;45301;-81
2022/03/03 08:18:13;;;;;;;5.18;3.65;;;16.80;39.40;;;;;;5114288;27;45482;-82
2022/03/03 08:20:40;;;;;;;5.45;3.42;;;16.80;38.40;;;;;;5110551;27;45259;-83
2022/03/03 08:23:08;;;;;;;6.28;4.03;;;16.80;37.80;;;;;;5126535;27;45331;-83
2022/03/03 08:25:36;;;;;;;4.75;3.45;;;16.80;36.70;;;;;;5123207;27;45773;-81
2022/03/03 08:28:04;;;;;;;6.60;3.95;;;16.80;36.20;;;;;;5124416;27;46350;-82
2022/03/03 08:30:32;;;;;;;5.80;4.10;;;16.80;35.90;;;;;;5128873;27;45212;-81
2022/03/03 08:33:08;;;;;;;7.85;4.40;;;16.80;35.80;;;;;;5127411;27;45331;-81
2022/03/03 08:35:39;;;;;;;6.65;3.75;;;16.80;35.60;;;;;;5129118;27;45178;-82
2022/03/03 08:38:08;;;;;;;6.15;3.80;;;16.80;35.70;;;;;;5116294;27;45260;-81
2022/03/03 08:40:36;;;;;;;8.15;3.65;;;16.80;35.50;;;;;;5111608;27;45219;-81
2022/03/03 08:43:07;;;;;;;6.07;3.85;;;16.80;35.50;;;;;;5126545;27;45230;-81
2022/03/03 08:45:36;;;;;;;5.80;3.75;;;16.80;35.50;;;;;;5125974;27;45340;-81
2022/03/03 08:48:06;;;;;;;7.63;4.15;;;16.80;35.70;;;;;;5125387;27;45340;-81
2022/03/03 08:50:34;;;;;;;7.07;4.50;;;16.70;35.50;;;;;;5119581;27;45156;-81
2022/03/03 08:53:02;;;;;;;6.47;3.83;;;16.80;35.40;;;;;;5108674;27;45240;-80
2022/03/03 08:55:29;;;;;;;6.40;3.90;;;16.80;35.50;;;;;;5127333;27;45357;-81
2022/03/03 08:57:58;;;;;;;5.82;3.95;;;16.80;35.40;;;;;;5113722;27;47640;-81
2022/03/03 09:00:25;;;;;;;6.50;4.18;;;16.80;35.50;;;;;;5115312;27;45224;-81
2022/03/03 09:02:54;;;;;;;6.38;4.00;;;16.80;35.90;;;;;;5120079;27;45517;-81
2022/03/03 09:05:21;;;;;;;6.90;4.30;;;16.80;35.70;;;;;;5125913;27;46141;-81
2022/03/03 09:07:49;;;;;;;7.45;4.05;;;16.80;35.70;;;;;;5118269;27;46298;-81
2022/03/03 09:10:16;;;;;;;5.40;3.70;;;16.90;36.00;;;;;;5126670;27;45252;-81
2022/03/03 09:12:44;;;;;;;6.53;4.13;;;16.90;35.40;;;;;;5136478;27;45362;-81
2022/03/03 09:15:11;;;;;;;5.30;3.55;;;16.80;35.50;;;;;;5127541;27;45398;-81
2022/03/03 09:17:39;;;;;;;7.20;3.67;;;16.80;35.40;;;;;;5117866;27;47422;-81
2022/03/03 09:20:11;;;;;;;6.88;4.00;;;16.80;35.60;;;;;;5123210;27;45335;-81
2022/03/03 09:22:38;;;;;;;5.45;3.65;;;16.80;35.70;;;;;;5122019;27;45313;-81
2022/03/03 09:25:06;;;;;;;7.55;4.43;;;16.80;35.70;;;;;;5120182;27;45319;-81
2022/03/03 09:27:33;;;;;;;7.00;4.20;;;16.80;35.80;;;;;;5109888;27;47413;-81
2022/03/03 09:30:00;;;;;;;6.10;4.10;;;16.80;35.80;;;;;;5131617;27;45830;-82
2022/03/03 09:32:27;;;;;;;5.40;3.90;;;16.80;35.80;;;;;;5128824;27;45221;-81
2022/03/03 09:34:54;;;;;;;7.43;4.40;;;16.80;35.80;;;;;;5133005;27;45107;-81
2022/03/03 09:37:23;;;;;;;6.40;3.97;;;16.80;35.80;;;;;;5129685;27;48038;-81
2022/03/03 09:39:50;;;;;;;7.57;4.30;;;16.80;35.90;;;;;;5131993;27;45322;-81
2022/03/03 09:42:17;;;;;;;6.43;4.20;;;16.80;35.80;;;;;;5129546;27;45221;-81
2022/03/03 09:44:44;;;;;;;6.53;4.18;;;16.80;35.70;;;;;;5130295;27;45136;-81
2022/03/03 09:47:12;;;;;;;5.78;4.07;;;16.90;35.50;;;;;;5119716;27;47899;-81
2022/03/03 09:49:39;;;;;;;7.70;4.38;;;16.90;35.70;;;;;;5116598;27;45292;-81
2022/03/03 09:52:13;;;;;;;5.95;4.13;;;16.90;35.60;;;;;;5112497;27;45345;-81
2022/03/03 09:54:42;;;;;;;5.28;3.50;;;16.90;35.50;;;;;;5124096;27;45205;-81
2022/03/03 09:57:09;;;;;;;6.40;4.13;;;16.90;35.70;;;;;;5115659;27;47267;-81
2022/03/03 09:59:36;;;;;;;6.50;3.85;;;16.90;35.20;;;;;;5119472;27;45524;-81
2022/03/03 10:02:04;;;;;;;5.68;3.80;;;16.90;35.50;;;;;;5132489;27;45277;-81
2022/03/03 10:04:31;;;;;;;6.57;4.00;;;16.90;35.60;;;;;;5128354;27;45274;-81
2022/03/03 10:07:04;;;;;;;6.28;3.88;;;16.90;35.30;;;;;;5126902;27;46583;-81
2022/03/03 10:09:31;;;;;;;7.18;4.32;;;16.90;35.70;;;;;;5129970;27;45409;-82
2022/03/03 10:12:04;;;;;;;5.70;4.03;;;16.90;35.70;;;;;;5119003;27;45538;-82
2022/03/03 10:14:33;;;;;;;5.93;4.00;;;16.90;36.00;;;;;;5112058;27;45220;-82
2022/03/03 10:17:01;;;;;;;5.13;3.50;;;16.90;37.30;;;;;;5112765;27;45596;-81
2022/03/03 10:19:28;;;;;;;5.00;3.67;;;16.90;37.90;;;;;;5129357;27;45187;-81
2022/03/03 10:21:55;;;;;;;5.85;3.50;;;16.90;38.20;;;;;;5137009;27;45273;-81
2022/03/03 10:24:25;;;;;;;4.50;3.28;;;16.90;38.60;;;;;;5134528;27;45318;-81
2022/03/03 10:26:59;;;;;;;4.75;3.25;;;16.90;38.80;;;;;;5116126;27;47131;-81
2022/03/03 10:29:28;;;;;;;5.57;3.55;;;16.90;38.80;;;;;;5124531;27;46669;-81
2022/03/03 10:31:57;;;;;;;4.68;3.38;;;16.90;38.80;;;;;;5128968;27;45262;-82
2022/03/03 10:34:27;;;;;;;4.13;2.88;;;17.00;38.90;;;;;;5130625;27;45170;-82
2022/03/03 10:36:59;;;;;;;4.90;3.40;;;17.00;39.30;;;;;;5124505;27;46412;-81
2022/03/03 10:39:26;;;;;;;5.30;3.67;;;17.00;39.30;;;;;;5123370;27;46628;-82
2022/03/03 10:41:57;;;;;;;4.28;3.08;;;17.00;39.40;;;;;;5110031;27;45172;-82
2022/03/03 10:44:32;;;;;;;4.55;3.03;;;17.00;39.50;;;;;;5128716;27;45096;-81
2022/03/03 10:47:06;;;;;;;4.88;3.03;;;17.00;39.80;;;;;;5120604;27;46275;-81
2022/03/03 10:49:34;;;;;;;3.53;2.85;;;17.00;39.80;;;;;;5120032;27;45602;-82
2022/03/03 10:52:21;;;;;;;5.18;3.10;;;17.00;39.80;;;;;;5130410;27;45380;-81
2022/03/03 10:54:53;;;;;;;5.88;3.55;;;17.00;39.90;;;;;;5119433;27;45753;-81
2022/03/03 10:57:35;;;;;;;5.22;2.88;;;17.00;40.00;;;;;;5115380;27;48306;-82
2022/03/03 11:00:07;;;;;;;4.30;3.08;;;17.00;39.80;;;;;;5122384;27;45253;-81
2022/03/03 11:02:36;;;;;;;4.90;3.35;;;17.00;39.70;;;;;;5123717;27;45248;-82
2022/03/03 11:05:04;;;;;;;5.32;3.15;;;17.00;39.60;;;;;;5123516;27;45185;-81
2022/03/03 11:07:32;;;;;;;5.25;2.85;;;17.00;39.90;;;;;;5112139;27;46229;-81
2022/03/03 11:09:59;;;;;;;5.40;3.17;;;17.00;40.30;;;;;;5123295;27;45277;-81
2022/03/03 11:12:27;;;;;;;4.13;2.97;;;17.00;40.00;;;;;;5129108;27;45280;-81
2022/03/03 11:14:57;;;;;;;5.05;3.28;;;17.00;40.10;;;;;;5130202;27;45195;-81
2022/03/03 11:17:26;;;;;;;4.15;3.00;;;17.00;39.90;;;;;;5124603;27;46654;-81
2022/03/03 11:19:58;;;;;;;4.72;2.78;;;17.00;39.80;;;;;;5129103;27;45140;-81
2022/03/03 11:22:25;;;;;;;4.80;3.00;;;17.00;40.00;;;;;;5110841;27;45407;-81
2022/03/03 11:24:53;;;;;;;3.60;2.75;;;17.00;39.70;;;;;;5119900;27;45244;-81
2022/03/03 11:27:20;;;;;;;4.88;2.88;;;17.00;40.00;;;;;;5129006;27;45200;-81
2022/03/03 11:30:15;;;;;;;4.35;3.00;;;17.00;40.00;;;;;;5134539;27;45385;-81
2022/03/03 11:32:44;;;;;;;5.30;3.00;;;17.00;40.00;;;;;;5125517;27;45515;-82
2022/03/03 11:35:13;;;;;;;4.28;2.72;;;17.00;40.00;;;;;;5116537;27;45447;-81
2022/03/03 11:37:41;;;;;;;4.82;2.67;;;17.00;40.00;;;;;;5107750;27;47120;-81
2022/03/03 11:40:09;;;;;;;4.43;2.90;;;17.00;40.00;;;;;;5117486;27;45296;-81
2022/03/03 11:42:40;;;;;;;4.13;2.72;;;17.00;39.80;;;;;;5113279;27;45328;-81
2022/03/03 11:45:32;;;;;;;3.45;2.63;;;17.00;39.60;;;;;;5129954;27;45330;-82
2022/03/03 11:48:12;;;;;;;3.65;2.72;;;17.00;39.90;;;;;;5120773;27;47626;-82
2022/03/03 11:50:40;;;;;;;3.55;2.70;;;17.00;39.80;;;;;;5120235;27;45329;-82
2022/03/03 11:53:22;;;;;;;3.60;2.45;;;17.00;39.90;;;;;;5127938;27;45231;-82
2022/03/03 11:56:01;;;;;;;4.25;2.50;;;17.00;39.90;;;;;;5111880;27;45331;-81
2022/03/03 11:58:31;;;;;;;4.68;2.58;;;17.00;39.80;;;;;;5123712;27;46417;-82
2022/03/03 12:01:08;;;;;;;4.25;2.85;;;17.00;39.80;;;;;;5124209;27;45439;-82
2022/03/03 12:04:00;;;;;;;4.00;2.70;;;17.00;39.60;;;;;;5115248;27;45262;-81
2022/03/03 12:06:37;;;;;;;4.15;2.65;;;17.10;39.40;;;;;;5120081;27;45283;-82
2022/03/03 12:09:17;;;;;;;3.67;2.60;;;17.10;39.60;;;;;;5129574;27;45596;-82
2022/03/03 12:11:45;;;;;;;3.72;2.63;;;17.10;39.90;;;;;;5116638;27;45365;-82
2022/03/03 12:14:31;;;;;;;4.75;3.00;;;17.10;40.20;;;;;;5129987;27;45159;-82
2022/03/03 12:17:32;;;;;;;4.50;3.10;;;17.10;40.00;;;;;;5114588;27;45508;-82
2022/03/03 12:20:45;;;;;;;4.45;2.70;;;17.10;40.00;;;;;;5117203;27;48374;-82
2022/03/03 12:23:16;;;;;;;3.15;2.35;;;17.10;40.00;;;;;;5045941;28;45564;-82
2022/03/03 12:26:01;;;;;;;5.07;3.00;;;17.10;39.80;;;;;;5106350;27;45285;-82
2022/03/03 12:28:36;;;;;;;5.15;3.10;;;17.10;40.00;;;;;;5123690;27;45348;-82
2022/03/03 12:31:19;;;;;;;5.47;2.63;;;17.10;40.00;;;;;;5122502;27;45437;-82
2022/03/03 12:33:56;;;;;;;4.15;2.50;;;17.10;40.30;;;;;;5129396;27;45244;-82
2022/03/03 12:36:23;;;;;;;3.17;2.42;;;17.00;40.00;;;;;;5129523;27;45693;-82
2022/03/03 12:38:53;;;;;;;3.75;2.67;;;17.10;40.20;;;;;;5127822;27;45186;-82
2022/03/03 12:41:21;;;;;;;3.75;2.80;;;17.10;40.10;;;;;;5123368;27;45469;-82
2022/03/03 12:43:48;;;;;;;4.75;2.80;;;17.10;39.90;;;;;;5128088;27;45216;-82
2022/03/03 12:46:15;;;;;;;3.28;2.50;;;17.10;39.80;;;;;;5125825;27;45221;-82
2022/03/03 12:48:42;;;;;;;3.55;2.40;;;17.10;39.90;;;;;;5122050;27;45302;-82
2022/03/03 12:51:10;;;;;;;3.53;2.58;;;17.10;39.90;;;;;;5129199;27;46763;-82
2022/03/03 12:53:38;;;;;;;4.13;2.70;;;17.10;39.70;;;;;;5126808;27;45577;-82
2022/03/03 12:56:07;;;;;;;3.83;2.60;;;17.10;40.40;;;;;;5119789;27;45249;-82
2022/03/03 12:58:36;;;;;;;3.45;2.70;;;17.10;39.30;;;;;;5119771;27;45322;-82